Time;durP1;ratioP1;P1;durP2;ratioP2;P2;SDS_P1;SDS_P2;PMS_P1;PMS_P2;Temp;Humidity;BMP_temperature;BMP_pressure;BME280_temperature;BME280_humidity;BME280_pressure;Samples;Min_cycle;Max_cycle;Signal;HPM_P1;HPM_P2
2023/11/04 00:01:05;;;;;;;7.40;5.05;;;;;;;6.93;93.04;95954.97;4204805;28;20592;-84
2023/11/04 00:03:20;;;;;;;8.65;6.05;;;;;;;6.91;93.67;95959.50;4187352;28;20762;-84
2023/11/04 00:05:24;;;;;;;8.30;5.93;;;;;;;6.89;93.95;95967.41;4184274;28;20193;-84
2023/11/04 00:07:27;;;;;;;8.02;5.57;;;;;;;6.82;93.13;95968.06;4182669;28;20210;-84
2023/11/04 00:09:33;;;;;;;7.63;5.10;;;;;;;6.78;92.94;95969.28;4185310;28;20246;-84
2023/11/04 00:11:51;;;;;;;8.05;5.65;;;;;;;6.72;92.68;95964.63;4179550;28;20714;-84
2023/11/04 00:13:54;;;;;;;14.18;5.75;;;;;;;6.72;92.40;95962.03;4186139;28;20197;-84
2023/11/04 00:15:58;;;;;;;11.18;5.00;;;;;;;6.68;93.07;95961.50;4208432;28;20239;-84
2023/11/04 00:18:01;;;;;;;11.90;5.97;;;;;;;6.68;93.42;95963.28;4188385;28;20207;-84
2023/11/04 00:20:06;;;;;;;9.70;5.30;;;;;;;6.65;92.95;95969.53;4184620;28;20759;-84
2023/11/04 00:22:09;;;;;;;10.15;5.47;;;;;;;6.68;93.72;95965.88;4174672;28;20207;-84
2023/11/04 00:24:12;;;;;;;7.72;5.13;;;;;;;6.65;93.95;95968.72;4192406;28;20789;-84
2023/11/04 00:26:16;;;;;;;12.38;5.50;;;;;;;6.58;92.49;95965.03;4187042;28;20331;-84
2023/11/04 00:28:27;;;;;;;8.20;5.13;;;;;;;6.57;92.82;95971.16;4171561;28;20217;-84
2023/11/04 00:30:33;;;;;;;6.70;5.32;;;;;;;6.53;92.82;95961.22;4173254;28;20224;-84
2023/11/04 00:32:56;;;;;;;6.22;4.18;;;;;;;6.54;93.30;95974.03;4192798;28;20260;-84
2023/11/04 00:35:20;;;;;;;6.10;4.45;;;;;;;6.56;94.01;95970.31;4179554;28;20201;-85
2023/11/04 00:37:43;;;;;;;5.28;4.10;;;;;;;6.61;93.60;95968.19;4191792;28;20294;-84
2023/11/04 00:40:08;;;;;;;7.28;4.40;;;;;;;6.64;94.01;95986.00;4193965;28;20206;-84
2023/11/04 00:42:32;;;;;;;6.63;4.60;;;;;;;6.64;94.77;95983.44;4173922;28;20198;-84
2023/11/04 00:44:56;;;;;;;9.32;4.63;;;;;;;6.61;93.37;95985.47;4178192;28;20198;-84
2023/11/04 00:47:19;;;;;;;6.75;4.53;;;;;;;6.53;91.93;95993.09;4174090;28;20340;-84
2023/11/04 00:49:42;;;;;;;6.95;4.47;;;;;;;6.52;92.65;95990.63;4190276;28;20302;-84
2023/11/04 00:52:05;;;;;;;5.00;3.60;;;;;;;6.53;93.45;95998.25;4179726;28;20335;-84
2023/11/04 00:54:28;;;;;;;7.22;4.60;;;;;;;6.56;94.24;95994.59;4190857;28;20199;-84
2023/11/04 00:56:52;;;;;;;5.28;4.68;;;;;;;6.61;95.22;95998.41;4171081;28;20789;-84
2023/11/04 00:59:16;;;;;;;8.93;4.20;;;;;;;6.60;94.85;95992.44;4178764;28;20719;-84
2023/11/04 01:01:41;;;;;;;4.20;3.75;;;;;;;6.61;93.99;95993.25;4179407;28;20210;-84
2023/11/04 01:04:05;;;;;;;7.57;4.47;;;;;;;6.65;94.38;95992.84;4186405;28;20203;-84
2023/11/04 01:06:28;;;;;;;5.55;4.00;;;;;;;6.67;95.83;95993.50;4180436;28;20212;-84
2023/11/04 01:08:51;;;;;;;5.32;4.03;;;;;;;6.72;95.58;96000.88;4190164;28;20197;-84
2023/11/04 01:11:17;;;;;;;4.93;4.32;;;;;;;6.78;95.62;95990.00;4174984;28;20281;-84
2023/11/04 01:13:40;;;;;;;5.85;4.55;;;;;;;6.73;94.80;95987.00;4177998;28;20246;-84
2023/11/04 01:16:06;;;;;;;4.95;3.85;;;;;;;6.70;94.70;95982.88;4191472;28;20207;-84
2023/11/04 01:18:29;;;;;;;6.30;4.50;;;;;;;6.72;94.73;95982.75;4191123;28;20194;-84
2023/11/04 01:20:52;;;;;;;7.10;4.13;;;;;;;6.71;94.21;95981.13;4175842;28;20817;-84
2023/11/04 01:23:16;;;;;;;5.20;3.60;;;;;;;6.75;94.29;95979.91;4192222;28;20604;-84
2023/11/04 01:25:39;;;;;;;4.28;3.00;;;;;;;6.85;95.27;95985.94;4188571;28;20566;-84
2023/11/04 01:28:03;;;;;;;4.90;3.53;;;;;;;6.93;95.93;95986.91;4179223;28;20220;-85
2023/11/04 01:30:26;;;;;;;4.90;2.85;;;;;;;6.99;95.81;95993.31;4173278;28;20585;-84
2023/11/04 01:32:51;;;;;;;3.60;3.20;;;;;;;7.05;95.83;95991.00;4190072;28;20852;-84
2023/11/04 01:35:14;;;;;;;2.92;2.60;;;;;;;7.11;95.03;95995.63;4188829;28;20239;-85
2023/11/04 01:37:37;;;;;;;4.65;2.35;;;;;;;7.19;96.13;95998.38;4181902;28;20855;-85
2023/11/04 01:40:06;;;;;;;4.22;2.20;;;;;;;7.26;95.73;95991.69;4191981;28;20425;-85
2023/11/04 01:42:30;;;;;;;3.15;2.20;;;;;;;7.32;95.44;95989.38;4172654;28;20287;-84
2023/11/04 01:44:53;;;;;;;5.25;2.53;;;;;;;7.37;94.34;95986.38;4185622;28;20199;-84
2023/11/04 01:47:16;;;;;;;4.70;2.30;;;;;;;7.42;94.83;95992.78;4188451;28;20480;-84
2023/11/04 01:49:41;;;;;;;4.18;2.50;;;;;;;7.48;93.40;95994.81;4179120;28;20238;-84
2023/11/04 01:52:04;;;;;;;3.70;2.50;;;;;;;7.52;93.65;95994.41;4189963;28;20284;-85
2023/11/04 01:54:28;;;;;;;2.83;2.47;;;;;;;7.51;94.35;95986.78;4179199;28;20600;-84
2023/11/04 01:56:52;;;;;;;3.00;2.20;;;;;;;7.57;94.05;95987.03;4175887;28;20298;-85
2023/11/04 01:59:16;;;;;;;4.00;2.38;;;;;;;7.64;93.77;95987.31;4177606;28;20217;-84
2023/11/04 02:01:41;;;;;;;3.08;2.20;;;;;;;7.68;93.76;95986.06;4177587;28;20209;-84
2023/11/04 02:04:05;;;;;;;2.97;2.28;;;;;;;7.73;93.05;95991.66;4175059;28;20637;-84
2023/11/04 02:06:30;;;;;;;7.82;2.50;;;;;;;7.78;93.18;95987.69;4173946;28;20206;-84
2023/11/04 02:08:55;;;;;;;2.30;1.95;;;;;;;7.83;94.03;95984.69;4189873;28;20204;-84
2023/11/04 02:11:18;;;;;;;4.18;3.08;;;;;;;7.86;94.65;95984.41;4190501;28;20221;-84
2023/11/04 02:13:41;;;;;;;4.40;3.00;;;;;;;7.86;93.73;95981.81;4172867;28;20204;-84
2023/11/04 02:16:05;;;;;;;3.53;2.28;;;;;;;7.84;94.00;95984.53;4175893;28;20198;-84
2023/11/04 02:18:30;;;;;;;2.92;2.00;;;;;;;7.86;94.22;95982.59;4175469;28;20249;-84
2023/11/04 02:20:58;;;;;;;4.18;2.20;;;;;;;7.91;93.51;95979.59;4177692;28;20328;-85
2023/11/04 02:23:21;;;;;;;7.13;2.15;;;;;;;7.92;94.37;95973.44;4187274;28;20238;-84
2023/11/04 02:25:45;;;;;;;3.40;2.20;;;;;;;7.95;94.59;95973.97;4168932;28;20224;-84
2023/11/04 02:28:07;;;;;;;3.53;2.47;;;;;;;7.95;95.12;95960.19;4180241;28;20215;-84
2023/11/04 02:30:30;;;;;;;3.55;2.38;;;;;;;7.98;94.56;95966.75;4171777;28;20266;-84
2023/11/04 02:32:53;;;;;;;3.10;2.42;;;;;;;7.96;95.90;95973.03;4192772;28;20273;-84
2023/11/04 02:35:17;;;;;;;5.53;2.63;;;;;;;7.96;94.55;95969.63;4192502;28;20304;-84
2023/11/04 02:37:42;;;;;;;3.15;2.33;;;;;;;7.93;94.63;95970.72;4177307;28;20202;-85
2023/11/04 02:40:06;;;;;;;2.88;2.38;;;;;;;7.91;95.93;95967.47;4187229;28;20201;-84
2023/11/04 02:42:29;;;;;;;4.25;2.65;;;;;;;7.94;94.33;95958.56;4184482;28;20201;-84
2023/11/04 02:44:53;;;;;;;3.20;2.40;;;;;;;7.91;95.04;95964.03;4188033;28;20660;-85
2023/11/04 02:47:16;;;;;;;4.72;2.80;;;;;;;7.91;95.90;95959.66;4176652;28;20244;-84
2023/11/04 02:49:39;;;;;;;3.55;2.60;;;;;;;7.92;94.16;95960.47;4175677;28;20624;-84
2023/11/04 02:52:02;;;;;;;3.20;2.83;;;;;;;7.89;94.97;95964.16;4176379;28;20236;-84
2023/11/04 02:54:34;;;;;;;4.00;2.70;;;;;;;7.92;95.34;95961.28;4168074;28;20209;-84
2023/11/04 02:56:57;;;;;;;3.67;2.47;;;;;;;7.93;94.63;95962.13;4177313;28;20207;-85
2023/11/04 02:59:20;;;;;;;4.45;2.80;;;;;;;7.90;95.39;95958.03;4185022;28;20634;-85
2023/11/04 03:01:43;;;;;;;3.30;3.00;;;;;;;7.88;95.86;95949.56;4169322;28;20655;-84
2023/11/04 03:04:08;;;;;;;4.45;3.17;;;;;;;7.84;96.05;95948.22;4173562;28;20206;-84
2023/11/04 03:06:31;;;;;;;3.63;3.22;;;;;;;7.80;96.40;95941.66;4189664;28;20208;-85
2023/11/04 03:08:54;;;;;;;2.90;2.60;;;;;;;7.78;95.07;95947.97;4186730;28;20197;-84
2023/11/04 03:11:19;;;;;;;3.85;3.15;;;;;;;7.78;95.82;95947.97;4174686;28;20216;-84
2023/11/04 03:13:42;;;;;;;3.53;3.03;;;;;;;7.78;95.40;95942.78;4175497;28;20263;-85
2023/11/04 03:16:07;;;;;;;4.05;3.08;;;;;;;7.80;96.84;95946.03;4188290;28;20670;-85
2023/11/04 03:18:30;;;;;;;4.57;2.63;;;;;;;7.81;96.84;95942.50;4177997;28;20204;-85
2023/11/04 03:20:54;;;;;;;4.57;3.05;;;;;;;7.82;96.28;95950.13;4177223;28;20240;-85
2023/11/04 03:23:17;;;;;;;6.95;3.63;;;;;;;7.83;96.88;95948.34;4175820;28;20205;-84
2023/11/04 03:25:40;;;;;;;3.60;3.03;;;;;;;7.85;97.37;95951.59;4176079;28;20216;-84
2023/11/04 03:28:05;;;;;;;4.55;3.20;;;;;;;7.86;96.24;95950.66;4174025;28;20205;-84
2023/11/04 03:30:28;;;;;;;3.10;2.70;;;;;;;7.86;97.25;95945.47;4179371;28;20224;-85
2023/11/04 03:32:51;;;;;;;4.10;3.22;;;;;;;7.86;96.63;95945.47;4189359;28;20225;-84
2023/11/04 03:35:15;;;;;;;4.45;2.70;;;;;;;7.85;94.92;95946.41;4169588;28;20889;-84
2023/11/04 03:37:38;;;;;;;4.95;2.45;;;;;;;7.87;96.00;95936.75;4186616;28;20201;-84
2023/11/04 03:40:01;;;;;;;3.50;2.20;;;;;;;7.85;94.27;95934.28;4171429;28;20240;-84
2023/11/04 03:42:24;;;;;;;3.08;1.60;;;;;;;7.88;94.99;95933.16;4173354;28;20229;-84
2023/11/04 03:44:48;;;;;;;2.80;1.80;;;;;;;7.93;94.21;95931.78;4176253;28;20217;-84
2023/11/04 03:47:11;;;;;;;6.78;3.10;;;;;;;7.93;94.64;95921.41;4168702;28;20280;-84
2023/11/04 03:49:34;;;;;;;2.72;2.10;;;;;;;7.93;93.28;95921.41;4189949;28;20649;-85
2023/11/04 03:51:58;;;;;;;2.55;1.63;;;;;;;7.93;93.87;95926.59;4184612;28;20211;-85
2023/11/04 03:54:21;;;;;;;3.80;2.15;;;;;;;7.95;94.48;95924.69;4173195;28;20196;-85
2023/11/04 03:56:44;;;;;;;2.20;1.67;;;;;;;7.95;92.74;95916.09;4176221;28;20234;-84
2023/11/04 03:59:07;;;;;;;3.80;1.42;;;;;;;7.96;93.20;95921.13;4174174;28;20193;-84
2023/11/04 04:01:40;;;;;;;2.20;1.35;;;;;;;7.97;91.27;95917.59;4182080;28;20651;-85
2023/11/04 04:04:03;;;;;;;2.00;1.48;;;;;;;7.93;91.25;95915.41;4201326;28;20208;-84
2023/11/04 04:06:26;;;;;;;2.75;1.23;;;;;;;7.92;92.26;95913.78;4188422;28;20229;-84
2023/11/04 04:08:49;;;;;;;1.98;1.50;;;;;;;7.94;91.35;95919.63;4187350;28;20199;-84
2023/11/04 04:11:12;;;;;;;2.20;1.33;;;;;;;7.94;91.55;95910.09;4184845;28;20209;-84
2023/11/04 04:13:36;;;;;;;3.67;1.65;;;;;;;7.97;90.25;95910.59;4186335;28;20218;-85
2023/11/04 04:16:00;;;;;;;2.17;1.50;;;;;;;7.98;90.02;95904.47;4187989;28;20341;-84
2023/11/04 04:18:24;;;;;;;3.15;1.38;;;;;;;8.01;89.36;95908.53;4187262;28;20205;-85
2023/11/04 04:20:48;;;;;;;3.15;1.73;;;;;;;8.06;88.83;95901.97;4182475;28;20209;-85
2023/11/04 04:23:11;;;;;;;2.50;1.42;;;;;;;8.10;89.63;95892.09;4178260;28;20206;-85
2023/11/04 04:25:34;;;;;;;2.55;1.70;;;;;;;8.12;88.61;95887.66;4190524;28;20242;-84
2023/11/04 04:27:57;;;;;;;2.60;1.50;;;;;;;8.12;89.70;95885.84;4190764;28;20205;-85
2023/11/04 04:30:20;;;;;;;1.75;1.45;;;;;;;8.14;89.76;95880.53;4170743;28;20215;-85
2023/11/04 04:32:44;;;;;;;2.45;1.40;;;;;;;8.13;88.33;95877.13;4189892;28;20263;-85
2023/11/04 04:35:09;;;;;;;2.20;1.60;;;;;;;8.14;88.55;95870.94;4192066;28;20691;-85
2023/11/04 04:37:32;;;;;;;2.10;1.42;;;;;;;8.12;88.35;95865.09;4173411;28;20210;-85
2023/11/04 04:39:56;;;;;;;2.72;1.60;;;;;;;8.08;89.04;95868.09;4174907;28;20198;-85
2023/11/04 04:42:19;;;;;;;1.85;1.42;;;;;;;8.04;89.18;95866.72;4202789;28;20217;-84
2023/11/04 04:44:42;;;;;;;1.92;1.50;;;;;;;8.01;88.68;95860.06;4188666;28;20212;-85
2023/11/04 04:47:05;;;;;;;1.70;1.45;;;;;;;8.01;89.35;95864.41;4175130;28;20691;-84
2023/11/04 04:49:28;;;;;;;3.40;1.88;;;;;;;8.02;87.72;95856.50;4171815;28;20202;-85
2023/11/04 04:51:53;;;;;;;2.20;1.50;;;;;;;8.03;87.26;95858.13;4188848;28;20261;-84
2023/11/04 04:54:16;;;;;;;2.10;1.65;;;;;;;8.01;87.14;95851.44;4188253;28;20222;-84
2023/11/04 04:56:39;;;;;;;1.80;1.40;;;;;;;7.99;88.53;95850.78;4172281;28;20709;-85
2023/11/04 04:59:03;;;;;;;2.70;1.42;;;;;;;7.97;87.11;95842.34;4187600;28;20213;-84
2023/11/04 05:01:26;;;;;;;1.90;1.40;;;;;;;7.98;88.18;95842.19;4174039;28;20256;-84
2023/11/04 05:03:49;;;;;;;1.92;1.50;;;;;;;7.98;87.72;95842.19;4189500;28;20208;-85
2023/11/04 05:06:13;;;;;;;1.80;1.60;;;;;;;8.01;86.75;95843.66;4189249;28;20205;-85
2023/11/04 05:08:37;;;;;;;2.30;1.63;;;;;;;8.01;87.29;95838.47;4177710;28;20204;-85
2023/11/04 05:11:00;;;;;;;1.95;1.45;;;;;;;7.99;87.26;95832.63;4193302;28;20229;-85
2023/11/04 05:13:24;;;;;;;1.80;1.50;;;;;;;7.99;87.69;95830.81;4195382;28;20702;-84
2023/11/04 05:15:47;;;;;;;2.60;1.60;;;;;;;8.00;87.10;95835.06;4193010;28;20571;-84
2023/11/04 05:18:11;;;;;;;1.88;1.50;;;;;;;8.03;87.68;95834.78;4173116;28;20293;-85
2023/11/04 05:20:34;;;;;;;2.40;1.67;;;;;;;8.03;86.62;95829.59;4189367;28;20305;-84
2023/11/04 05:22:58;;;;;;;2.28;1.80;;;;;;;8.01;87.04;95831.53;4177811;28;20219;-85
2023/11/04 05:25:22;;;;;;;3.40;1.60;;;;;;;8.01;87.33;95826.31;4185844;28;20248;-84
2023/11/04 05:27:46;;;;;;;2.45;1.83;;;;;;;8.03;87.16;95832.19;4182381;28;20270;-84
2023/11/04 05:30:10;;;;;;;2.65;1.50;;;;;;;8.06;87.49;95818.91;4190556;28;20206;-84
2023/11/04 05:32:35;;;;;;;1.50;1.40;;;;;;;8.07;88.63;95820.56;4188690;28;20218;-84
2023/11/04 05:34:58;;;;;;;1.63;1.40;;;;;;;8.08;87.30;95816.19;4192158;28;20201;-85
2023/11/04 05:37:21;;;;;;;1.75;1.55;;;;;;;8.08;86.75;95814.38;4180304;28;20231;-84
2023/11/04 05:39:44;;;;;;;1.88;1.40;;;;;;;8.10;86.72;95819.44;4185776;28;20234;-85
2023/11/04 05:42:08;;;;;;;2.28;1.70;;;;;;;8.04;87.29;95815.66;4182692;28;20241;-85
2023/11/04 05:44:32;;;;;;;1.40;1.30;;;;;;;8.03;86.92;95808.03;4174667;28;20203;-85
2023/11/04 05:46:55;;;;;;;4.28;1.45;;;;;;;7.98;88.42;95795.47;4177024;28;20583;-84
2023/11/04 05:49:18;;;;;;;2.35;1.50;;;;;;;7.94;87.46;95793.31;4177306;28;20214;-84
2023/11/04 05:51:41;;;;;;;2.22;1.40;;;;;;;7.91;88.83;95787.56;4189701;28;20288;-85
2023/11/04 05:54:04;;;;;;;2.45;1.40;;;;;;;7.86;88.01;95800.19;4189044;28;20221;-84
2023/11/04 05:56:27;;;;;;;1.67;1.35;;;;;;;7.92;87.86;95797.00;4188376;28;20219;-84
2023/11/04 05:58:52;;;;;;;1.45;1.20;;;;;;;7.87;87.39;95796.63;4176123;28;20202;-84
2023/11/04 06:01:15;;;;;;;1.95;1.40;;;;;;;7.84;87.87;95786.53;4173064;28;20206;-85
2023/11/04 06:03:38;;;;;;;2.88;1.50;;;;;;;7.85;88.05;95776.03;4204305;28;20196;-84
2023/11/04 06:06:05;;;;;;;1.40;1.15;;;;;;;7.86;88.05;95769.03;4178777;28;20209;-84
2023/11/04 06:08:28;;;;;;;1.60;1.50;;;;;;;7.87;88.19;95776.69;4204473;28;20196;-84
2023/11/04 06:10:51;;;;;;;4.70;1.27;;;;;;;7.81;87.82;95776.44;4176072;28;21086;-85
2023/11/04 06:13:14;;;;;;;1.70;1.48;;;;;;;7.80;89.09;95767.03;4179579;28;20229;-85
2023/11/04 06:15:39;;;;;;;2.25;1.60;;;;;;;7.81;88.63;95772.06;4179290;28;20270;-84
2023/11/04 06:18:02;;;;;;;2.08;1.70;;;;;;;7.81;87.97;95776.44;4184896;28;20897;-85
2023/11/04 06:20:25;;;;;;;2.30;1.67;;;;;;;7.81;89.22;95779.03;4173201;28;20219;-84
2023/11/04 06:22:48;;;;;;;2.20;1.55;;;;;;;7.81;88.66;95777.25;4177743;28;20243;-85
2023/11/04 06:25:12;;;;;;;2.00;1.50;;;;;;;7.81;88.85;95768.66;4164194;28;20199;-85
2023/11/04 06:27:35;;;;;;;1.70;1.58;;;;;;;7.83;87.92;95777.91;4186575;28;20214;-85
2023/11/04 06:29:58;;;;;;;2.40;1.60;;;;;;;7.88;88.97;95769.69;4185359;28;20688;-84
2023/11/04 06:32:22;;;;;;;3.83;1.63;;;;;;;7.90;89.50;95776.41;4176591;28;20260;-87
2023/11/04 06:34:45;;;;;;;2.63;1.70;;;;;;;7.87;89.05;95768.09;4194617;28;20224;-87
2023/11/04 06:37:09;;;;;;;2.47;1.60;;;;;;;7.88;89.29;95764.50;4187839;28;20209;-87
2023/11/04 06:39:32;;;;;;;2.63;1.70;;;;;;;7.91;88.34;95766.81;4190717;28;20484;-87
2023/11/04 06:41:55;;;;;;;2.45;1.63;;;;;;;8.15;88.10;95765.34;4170263;28;20296;-87
2023/11/04 06:44:18;;;;;;;1.90;1.38;;;;;;;8.39;87.74;95774.19;4186430;28;20301;-88
2023/11/04 06:46:46;;;;;;;2.17;1.50;;;;;;;8.62;86.26;95770.16;4187098;28;20201;-88
2023/11/04 06:49:11;;;;;;;3.45;1.40;;;;;;;8.80;85.37;95756.19;4179560;28;20246;-88
2023/11/04 06:51:34;;;;;;;1.70;1.30;;;;;;;8.99;86.13;95745.56;4189023;28;20658;-88
2023/11/04 06:53:37;;;;;;;1.70;1.30;;;;;;;9.16;85.72;95750.75;4184633;28;20813;-88
2023/11/04 06:55:40;;;;;;;1.75;1.35;;;;;;;9.31;85.54;95748.41;4203699;28;20699;-88
2023/11/04 06:57:43;;;;;;;1.80;1.30;;;;;;;9.40;84.47;95743.88;4187418;28;20212;-87
2023/11/04 06:59:46;;;;;;;2.80;1.60;;;;;;;9.38;84.01;95734.59;4191348;28;20212;-86
2023/11/04 07:01:49;;;;;;;2.13;1.30;;;;;;;9.28;84.85;95733.09;4184792;28;20631;-86
2023/11/04 07:03:52;;;;;;;2.17;1.45;;;;;;;9.18;85.00;95737.59;4172384;28;20286;-86
2023/11/04 07:05:56;;;;;;;1.77;1.40;;;;;;;9.13;84.38;95732.84;4178673;28;20289;-87
2023/11/04 07:08:00;;;;;;;1.90;1.30;;;;;;;9.16;85.40;95735.13;4205966;28;20197;-86
2023/11/04 07:10:03;;;;;;;1.85;1.40;;;;;;;9.22;85.33;95734.53;4190717;28;20244;-85
2023/11/04 07:12:06;;;;;;;1.67;1.27;;;;;;;9.30;85.45;95720.75;4183813;28;20699;-86
2023/11/04 07:14:10;;;;;;;1.65;1.48;;;;;;;9.40;84.93;95724.88;4186625;28;20230;-85
2023/11/04 07:16:14;;;;;;;2.15;1.60;;;;;;;9.56;85.10;95722.31;4188673;28;20270;-86
2023/11/04 07:18:19;;;;;;;1.23;1.10;;;;;;;9.67;84.00;95727.25;4188793;28;20212;-86
2023/11/04 07:20:22;;;;;;;1.40;1.30;;;;;;;9.74;84.17;95728.25;4181243;28;20251;-86
2023/11/04 07:22:27;;;;;;;1.30;1.10;;;;;;;9.84;84.25;95728.94;4176002;28;20202;-86
2023/11/04 07:24:30;;;;;;;1.95;1.15;;;;;;;9.96;83.42;95716.31;4204658;28;20284;-86
2023/11/04 07:26:33;;;;;;;2.78;1.35;;;;;;;9.97;83.22;95710.13;4202773;28;20671;-86
2023/11/04 07:28:36;;;;;;;1.55;1.15;;;;;;;9.92;83.65;95709.78;4185907;28;20259;-86
2023/11/04 07:30:40;;;;;;;1.70;1.20;;;;;;;9.88;83.71;95718.88;4169544;28;20273;-86
2023/11/04 07:32:42;;;;;;;1.50;0.93;;;;;;;9.84;83.26;95709.72;4171768;28;20217;-87
2023/11/04 07:34:45;;;;;;;2.70;1.65;;;;;;;9.85;83.42;95700.97;4203594;28;20642;-86
2023/11/04 07:36:48;;;;;;;1.40;1.10;;;;;;;9.89;83.54;95694.47;4187800;28;20292;-86
2023/11/04 07:38:53;;;;;;;1.35;1.00;;;;;;;10.00;83.34;95704.59;4185288;28;20713;-85
2023/11/04 07:40:56;;;;;;;2.25;1.30;;;;;;;10.37;82.93;95710.19;4201609;28;20226;-85
2023/11/04 07:42:59;;;;;;;1.42;0.98;;;;;;;10.81;81.81;95707.09;4185949;28;20194;-86
2023/11/04 07:45:03;;;;;;;1.45;1.05;;;;;;;11.17;81.62;95703.94;4170790;28;20210;-85
2023/11/04 07:47:06;;;;;;;0.93;0.70;;;;;;;11.34;81.24;95697.69;4184034;28;20258;-85
2023/11/04 07:49:10;;;;;;;1.30;1.07;;;;;;;11.19;78.70;95699.38;4185348;28;20689;-85
2023/11/04 07:51:13;;;;;;;1.60;1.03;;;;;;;11.05;80.30;95687.03;4192218;28;20796;-87
2023/11/04 07:53:16;;;;;;;1.42;1.10;;;;;;;11.07;79.52;95679.84;4173561;28;20668;-89
2023/11/04 07:55:21;;;;;;;1.30;0.97;;;;;;;11.30;80.50;95685.97;4185934;28;20232;-86
2023/11/04 07:57:25;;;;;;;1.70;1.23;;;;;;;11.27;78.21;95681.91;4184064;28;20728;-86
2023/11/04 07:59:28;;;;;;;1.67;1.10;;;;;;;11.25;78.84;95677.03;4184808;28;20734;-85
2023/11/04 08:01:31;;;;;;;1.93;1.00;;;;;;;11.26;78.60;95683.84;4184020;28;21031;-87
2023/11/04 08:03:35;;;;;;;2.93;1.17;;;;;;;11.29;80.72;95679.94;4202681;28;20634;-90
2023/11/04 08:05:40;;;;;;;1.50;1.10;;;;;;;11.32;79.73;95684.00;4188786;28;20667;-87
2023/11/04 08:07:43;;;;;;;1.63;0.93;;;;;;;11.29;79.80;95672.09;4196195;28;20639;-87
2023/11/04 08:09:47;;;;;;;1.37;0.90;;;;;;;11.36;79.07;95674.84;4186607;28;20627;-89
2023/11/04 08:11:51;;;;;;;1.50;1.13;;;;;;;11.54;79.61;95660.59;4204004;28;20627;-86
2023/11/04 08:13:55;;;;;;;1.10;0.90;;;;;;;11.79;80.01;95670.78;4185826;28;20625;-87
2023/11/04 08:15:58;;;;;;;2.00;1.27;;;;;;;11.91;78.48;95663.38;4185424;28;20792;-87
2023/11/04 08:18:01;;;;;;;1.77;0.80;;;;;;;11.98;78.02;95665.13;4207937;28;20679;-86
2023/11/04 08:20:08;;;;;;;1.67;1.00;;;;;;;12.08;78.13;95652.63;4186430;28;20682;-86
2023/11/04 08:22:14;;;;;;;1.23;0.80;;;;;;;12.23;76.97;95660.56;4188253;28;20739;-85
2023/11/04 08:24:18;;;;;;;1.43;1.10;;;;;;;12.30;77.87;95659.69;4197849;28;20627;-87
2023/11/04 08:26:21;;;;;;;1.50;1.00;;;;;;;12.40;76.14;95657.63;4187317;28;20623;-86
2023/11/04 08:28:27;;;;;;;1.80;1.00;;;;;;;12.46;77.46;95654.31;4169309;28;21205;-84
2023/11/04 08:30:30;;;;;;;1.33;1.00;;;;;;;12.63;76.11;95655.78;4187291;28;20722;-85
2023/11/04 08:32:34;;;;;;;1.43;1.07;;;;;;;12.76;77.17;95667.28;4195167;28;20639;-85
2023/11/04 08:34:37;;;;;;;2.20;1.00;;;;;;;12.92;76.00;95659.34;4187730;28;20672;-86
2023/11/04 08:36:41;;;;;;;1.67;1.13;;;;;;;12.98;73.64;95658.63;4190799;28;20685;-86
2023/11/04 08:38:44;;;;;;;1.60;1.10;;;;;;;13.09;76.44;95661.59;4191090;28;20679;-86
2023/11/04 08:40:47;;;;;;;1.33;0.83;;;;;;;13.18;73.96;95656.13;4206970;28;20708;-87
2023/11/04 08:42:53;;;;;;;1.20;0.90;;;;;;;13.23;74.21;95663.44;4182066;28;20635;-87
2023/11/04 08:44:57;;;;;;;1.97;1.47;;;;;;;13.31;73.92;95653.66;4177122;28;21315;-87
2023/11/04 08:47:01;;;;;;;1.20;0.80;;;;;;;13.35;73.00;95648.88;4191176;28;21096;-88
2023/11/04 08:49:05;;;;;;;3.30;1.00;;;;;;;13.39;73.14;95637.06;4205617;28;20629;-84
2023/11/04 08:51:08;;;;;;;1.67;1.00;;;;;;;13.44;73.93;95650.41;4205722;28;20667;-85
2023/11/04 08:53:11;;;;;;;1.73;0.97;;;;;;;13.29;72.09;95633.88;4185304;28;21138;-89
2023/11/04 08:55:15;;;;;;;1.63;1.00;;;;;;;13.19;71.98;95626.31;4189754;28;20648;-88
2023/11/04 08:57:18;;;;;;;1.60;1.10;;;;;;;13.18;72.31;95618.63;4185930;28;20620;-87
2023/11/04 08:59:21;;;;;;;1.57;0.93;;;;;;;12.96;71.84;95614.31;4170778;28;20720;-88
2023/11/04 09:01:26;;;;;;;2.20;0.80;;;;;;;12.66;71.99;95601.38;4189474;28;21211;-87
2023/11/04 09:03:29;;;;;;;1.40;0.90;;;;;;;12.46;72.53;95596.81;4186236;28;20662;-89
2023/11/04 09:05:31;;;;;;;1.30;0.87;;;;;;;12.32;73.23;95597.59;4176654;28;20621;-87
2023/11/04 09:07:36;;;;;;;1.60;1.00;;;;;;;12.25;74.17;95591.44;4174580;28;20690;-88
2023/11/04 09:09:40;;;;;;;2.13;1.23;;;;;;;12.30;76.36;95589.91;4192404;28;21021;-87
2023/11/04 09:11:43;;;;;;;1.93;1.33;;;;;;;12.35;75.23;95592.00;4188444;28;20695;-88
2023/11/04 09:13:45;;;;;;;1.87;0.80;;;;;;;12.42;75.36;95587.72;4206491;28;20665;-88
2023/11/04 09:15:49;;;;;;;1.30;0.90;;;;;;;12.54;75.39;95591.50;4202435;28;20662;-86
2023/11/04 09:17:53;;;;;;;1.73;1.10;;;;;;;12.59;73.97;95583.94;4205866;28;21016;-86
2023/11/04 09:19:57;;;;;;;1.63;1.10;;;;;;;12.60;73.61;95583.78;4187952;28;20710;-86
2023/11/04 09:22:00;;;;;;;1.40;0.80;;;;;;;12.68;74.01;95590.72;4185724;28;20627;-86
2023/11/04 09:24:03;;;;;;;1.20;0.90;;;;;;;12.69;73.46;95588.72;4182566;28;20620;-86
2023/11/04 09:26:06;;;;;;;2.37;1.10;;;;;;;12.73;74.14;95586.56;4170872;28;20636;-86
2023/11/04 09:28:10;;;;;;;1.57;1.00;;;;;;;12.68;73.82;95582.88;4195423;28;20620;-88
2023/11/04 09:30:14;;;;;;;2.13;1.17;;;;;;;12.68;75.24;95574.03;4183107;28;20656;-87
2023/11/04 09:32:18;;;;;;;1.80;1.00;;;;;;;12.79;74.42;95575.38;4207705;28;20976;-87
2023/11/04 09:34:23;;;;;;;1.97;1.00;;;;;;;12.88;74.71;95574.34;4177111;28;20621;-87
2023/11/04 09:36:26;;;;;;;1.80;0.83;;;;;;;12.96;74.91;95579.47;4190614;28;20655;-87
2023/11/04 09:38:28;;;;;;;2.00;1.30;;;;;;;13.14;74.88;95577.31;4192553;28;20627;-87
2023/11/04 09:40:31;;;;;;;2.30;1.10;;;;;;;13.29;74.02;95569.28;4193775;28;20782;-87
2023/11/04 09:42:35;;;;;;;2.87;1.10;;;;;;;13.30;73.09;95567.47;4201621;28;20646;-87
2023/11/04 09:44:39;;;;;;;2.80;1.40;;;;;;;13.38;74.27;95557.72;4208958;28;20722;-86
2023/11/04 09:46:42;;;;;;;2.10;1.10;;;;;;;13.43;73.19;95550.09;4192578;28;20719;-85
2023/11/04 09:48:47;;;;;;;2.97;1.10;;;;;;;13.56;73.83;95545.03;4188424;28;20890;-87
2023/11/04 09:50:52;;;;;;;2.60;1.60;;;;;;;13.66;72.90;95533.22;4203539;28;21254;-88
2023/11/04 09:52:59;;;;;;;1.87;1.20;;;;;;;13.63;70.75;95522.31;4185412;28;21043;-86
2023/11/04 09:55:05;;;;;;;1.43;0.90;;;;;;;13.51;73.21;95517.75;4173255;28;20669;-90
2023/11/04 09:57:09;;;;;;;1.67;0.90;;;;;;;13.57;72.57;95515.19;4158036;28;20655;-89
2023/11/04 09:59:12;;;;;;;1.40;1.00;;;;;;;13.64;73.56;95507.44;4190540;28;20796;-89
2023/11/04 10:01:14;;;;;;;1.80;1.20;;;;;;;13.72;73.36;95508.09;4200737;28;20627;-90
2023/11/04 10:03:18;;;;;;;17.40;10.37;;;;;;;13.77;73.19;95506.56;4177996;28;20628;-90
2023/11/04 10:05:22;;;;;;;2.30;1.43;;;;;;;13.77;72.79;95500.47;4184210;28;20728;-89
2023/11/04 10:07:26;;;;;;;1.30;0.90;;;;;;;13.79;71.57;95496.69;4195442;28;20628;-91
2023/11/04 10:09:30;;;;;;;1.80;1.10;;;;;;;13.85;72.78;95482.84;4205732;28;20621;-91
2023/11/04 10:11:35;;;;;;;2.20;1.00;;;;;;;13.86;73.03;95478.41;4176776;28;21269;-90
2023/11/04 10:13:39;;;;;;;2.10;1.10;;;;;;;13.91;73.05;95466.38;4192306;28;20625;-92
2023/11/04 10:15:42;;;;;;;1.90;1.10;;;;;;;13.77;72.35;95469.88;4175968;28;20637;-91
2023/11/04 10:17:45;;;;;;;2.13;1.83;;;;;;;13.67;73.54;95458.09;4210148;28;20648;-91
2023/11/04 10:19:48;;;;;;;1.60;0.90;;;;;;;13.65;71.94;95444.34;4188220;28;21092;-90
2023/11/04 10:21:53;;;;;;;1.57;0.90;;;;;;;13.63;71.70;95442.94;4195937;28;20636;-88
2023/11/04 10:23:58;;;;;;;1.33;1.00;;;;;;;13.63;72.33;95437.69;4205700;28;20656;-90
2023/11/04 10:26:03;;;;;;;1.50;1.17;;;;;;;13.55;72.47;95416.88;4193091;28;20640;-91
2023/11/04 10:28:08;;;;;;;1.50;1.00;;;;;;;13.53;71.79;95422.31;4192102;28;20632;-90
2023/11/04 10:30:11;;;;;;;1.40;1.10;;;;;;;13.52;71.95;95412.81;4186436;28;20636;-90
2023/11/04 10:32:15;;;;;;;2.13;1.10;;;;;;;13.47;70.61;95414.38;4178217;28;20725;-91
2023/11/04 10:34:25;;;;;;;1.40;0.90;;;;;;;13.43;71.85;95408.72;4208446;28;20672;-92
2023/11/04 10:36:29;;;;;;;2.00;1.00;;;;;;;13.45;74.13;95406.72;4190050;28;20648;-90
2023/11/04 10:38:33;;;;;;;2.30;0.97;;;;;;;13.41;72.12;95409.88;4192036;28;20990;-91
2023/11/04 10:40:38;;;;;;;1.50;0.97;;;;;;;13.35;72.69;95405.41;4192069;28;20632;-91